createdAt,value
2022-12-05T00:01:32.780Z,101172.53
2022-12-05T00:04:02.204Z,101162.38
2022-12-05T00:06:31.206Z,101171.38
2022-12-05T00:08:59.516Z,101179.84
2022-12-05T00:11:29.185Z,101170.94
2022-12-05T00:13:59.217Z,101159.16
2022-12-05T00:16:28.372Z,101173.16
2022-12-05T00:18:56.058Z,101148.69
2022-12-05T00:21:26.090Z,101170.06
2022-12-05T00:23:55.053Z,101152.97
2022-12-05T00:26:23.326Z,101150.03
2022-12-05T00:28:51.060Z,101147.00
2022-12-05T00:31:22.298Z,101156.84
2022-12-05T00:33:50.812Z,101157.31
2022-12-05T00:36:19.700Z,101157.41
2022-12-05T00:38:47.187Z,101157.00
2022-12-05T00:41:20.906Z,101148.00
2022-12-05T00:43:48.203Z,101146.03
2022-12-05T00:46:19.353Z,101159.78
2022-12-05T00:48:47.434Z,101150.81
2022-12-05T00:51:20.930Z,101146.00
2022-12-05T00:53:48.742Z,101157.75
2022-12-05T00:56:20.961Z,101144.22
2022-12-05T00:58:48.574Z,101161.66
2022-12-05T01:01:19.775Z,101155.06
2022-12-05T01:03:47.554Z,101146.34
2022-12-05T01:06:16.645Z,101146.56
2022-12-05T01:08:44.373Z,101138.56
2022-12-05T01:11:14.782Z,101139.22
2022-12-05T01:13:42.373Z,101151.84
2022-12-05T01:16:23.737Z,101134.38
2022-12-05T01:18:51.316Z,101143.03
2022-12-05T01:21:20.241Z,101160.81
2022-12-05T01:23:47.763Z,101154.69
2022-12-05T01:26:17.456Z,101153.47
2022-12-05T01:28:45.329Z,101152.94
2022-12-05T01:31:25.463Z,101146.13
2022-12-05T01:33:54.738Z,101148.78
2022-12-05T01:36:23.398Z,101153.28
2022-12-05T01:38:51.394Z,101155.06
2022-12-05T01:41:21.875Z,101161.28
2022-12-05T01:44:03.963Z,101158.97
2022-12-05T01:46:34.398Z,101158.69
2022-12-05T01:49:24.722Z,101143.31
2022-12-05T01:51:56.468Z,101146.03
2022-12-05T01:54:24.786Z,101156.47
2022-12-05T01:57:04.064Z,101153.19
2022-12-05T01:59:36.006Z,101149.50
2022-12-05T02:02:04.928Z,101155.06
2022-12-05T02:04:38.629Z,101151.72
2022-12-05T02:07:06.136Z,101154.69
2022-12-05T02:09:33.347Z,101160.25
2022-12-05T02:12:03.292Z,101147.19
2022-12-05T02:14:33.034Z,101152.97
2022-12-05T02:17:11.041Z,101141.69
2022-12-05T02:19:56.704Z,101147.09
2022-12-05T02:22:48.465Z,101152.97
2022-12-05T02:25:43.557Z,101138.56
2022-12-05T02:28:28.180Z,101147.16
2022-12-05T02:31:16.267Z,101156.19
2022-12-05T02:33:51.053Z,101148.63
2022-12-05T02:36:45.414Z,101158.13
2022-12-05T02:39:19.094Z,101151.19
2022-12-05T02:41:55.216Z,101147.75
2022-12-05T02:44:32.275Z,101133.34
2022-12-05T02:47:00.876Z,101137.97
2022-12-05T02:49:32.091Z,101133.75
2022-12-05T02:52:02.603Z,101130.19
2022-12-05T02:54:35.876Z,101124.91
2022-12-05T02:57:04.554Z,101130.47
2022-12-05T02:59:32.032Z,101126.25
2022-12-05T03:01:59.257Z,101124.28
2022-12-05T03:04:29.034Z,101121.53
2022-12-05T03:07:12.339Z,101127.56
2022-12-05T03:09:46.870Z,101114.25
2022-12-05T03:12:31.085Z,101114.53
2022-12-05T03:15:24.656Z,101108.06
2022-12-05T03:18:06.657Z,101112.72
2022-12-05T03:20:42.772Z,101110.81
2022-12-05T03:23:46.267Z,101100.63
2022-12-05T03:26:21.452Z,101118.84
2022-12-05T03:29:08.772Z,101104.06
2022-12-05T03:32:01.335Z,101101.88
2022-12-05T03:34:31.299Z,101098.78
2022-12-05T03:37:05.948Z,101097.84
2022-12-05T03:39:36.310Z,101101.78
2022-12-05T03:42:13.791Z,101098.69
2022-12-05T03:44:57.612Z,101102.38
2022-12-05T03:47:48.950Z,101078.03
2022-12-05T03:50:24.413Z,101099.41
2022-12-05T03:55:54.780Z,101106.88
2022-12-05T03:58:28.741Z,101097.22
2022-12-05T04:00:59.990Z,101095.34
2022-12-05T04:03:39.744Z,101091.91
2022-12-05T04:06:21.547Z,101097.97
2022-12-05T04:08:55.145Z,101088.34
2022-12-05T04:11:27.318Z,101098.66
2022-12-05T04:13:59.540Z,101085.94
2022-12-05T04:16:48.476Z,101083.19
2022-12-05T04:19:29.266Z,101087.91
2022-12-05T04:21:57.605Z,101087.06
2022-12-05T04:24:51.143Z,101089.81
2022-12-05T04:27:59.678Z,101090.41
2022-12-05T04:30:40.571Z,101077.44
2022-12-05T04:33:17.265Z,101082.84
2022-12-05T04:35:56.125Z,101069.28
2022-12-05T04:38:39.828Z,101082.72
2022-12-05T04:41:14.056Z,101080.28
2022-12-05T04:43:44.627Z,101078.56
2022-12-05T04:46:15.057Z,101095.09
2022-12-05T04:48:45.537Z,101081.06
2022-12-05T04:51:19.582Z,101084.31
2022-12-05T04:53:50.139Z,101087.00
2022-12-05T04:56:19.622Z,101106.28
2022-12-05T04:58:46.938Z,101092.03
2022-12-05T05:01:36.345Z,101094.25
2022-12-05T05:04:27.114Z,101080.84
2022-12-05T05:06:54.722Z,101082.59
2022-12-05T05:09:21.881Z,101078.53
2022-12-05T05:11:49.404Z,101082.00
2022-12-05T05:14:16.528Z,101077.56
2022-12-05T05:16:44.915Z,101069.25
2022-12-05T05:19:12.346Z,101074.94
2022-12-05T05:21:42.252Z,101073.34
2022-12-05T05:24:11.726Z,101088.25
2022-12-05T05:26:41.529Z,101079.41
2022-12-05T05:29:09.840Z,101075.47
2022-12-05T05:31:38.850Z,101065.69
2022-12-05T05:34:09.663Z,101078.84
2022-12-05T05:36:38.494Z,101069.69
2022-12-05T05:39:09.230Z,101061.88
2022-12-05T05:41:36.909Z,101076.28
2022-12-05T05:44:05.265Z,101080.84
2022-12-05T05:46:34.952Z,101067.16
2022-12-05T05:49:02.230Z,101077.53
2022-12-05T05:51:30.435Z,101061.47
2022-12-05T05:53:58.629Z,101070.78
2022-12-05T05:56:27.282Z,101076.09
2022-12-05T05:59:02.860Z,101067.44
2022-12-05T06:01:30.617Z,101070.50
2022-12-05T06:03:58.324Z,101065.91
2022-12-05T06:06:26.544Z,101080.78
2022-12-05T06:08:54.961Z,101069.25
2022-12-05T06:11:26.731Z,101081.69
2022-12-05T06:14:00.878Z,101079.50
2022-12-05T06:16:29.705Z,101078.38
2022-12-05T06:18:58.521Z,101078.63
2022-12-05T06:21:26.595Z,101077.78
2022-12-05T06:23:54.674Z,101084.41
2022-12-05T06:26:22.885Z,101082.78
2022-12-05T06:28:50.491Z,101082.28
2022-12-05T06:31:21.846Z,101075.72
2022-12-05T06:33:49.371Z,101078.63
2022-12-05T06:36:19.379Z,101077.31
2022-12-05T06:38:46.928Z,101084.84
2022-12-05T06:41:17.568Z,101087.25
2022-12-05T06:43:45.206Z,101074.72
2022-12-05T06:46:14.129Z,101082.69
2022-12-05T06:48:41.487Z,101073.91
2022-12-05T06:51:13.846Z,101084.56
2022-12-05T06:53:41.556Z,101085.09
2022-12-05T06:56:12.344Z,101082.97
2022-12-05T06:58:40.890Z,101086.66
2022-12-05T07:01:31.873Z,101087.72
2022-12-05T07:03:59.831Z,101083.75
2022-12-05T07:06:28.055Z,101090.91
2022-12-05T07:08:55.374Z,101090.50
2022-12-05T07:11:22.818Z,101099.63
2022-12-05T07:13:49.957Z,101094.97
2022-12-05T07:16:17.495Z,101087.34
2022-12-05T07:18:44.693Z,101096.69
2022-12-05T07:21:14.497Z,101097.69
2022-12-05T07:23:44.150Z,101091.47
2022-12-05T07:26:18.145Z,101085.22
2022-12-05T07:28:45.735Z,101086.13
2022-12-05T07:31:16.634Z,101086.53
2022-12-05T07:33:44.291Z,101094.97
2022-12-05T07:36:15.037Z,101087.16
2022-12-05T07:38:43.135Z,101076.84
2022-12-05T07:41:22.573Z,101083.31
2022-12-05T07:43:54.942Z,101086.34
2022-12-05T07:46:23.896Z,101072.16
2022-12-05T07:48:51.602Z,101089.16
2022-12-05T07:51:20.317Z,101089.25
2022-12-05T07:53:48.117Z,101072.03
2022-12-05T07:56:17.632Z,101078.16
2022-12-05T07:58:47.554Z,101084.41
2022-12-05T08:01:17.960Z,101075.44
2022-12-05T08:03:46.027Z,101072.66
2022-12-05T08:06:18.438Z,101081.41
2022-12-05T08:08:50.013Z,101074.00
2022-12-05T08:11:22.174Z,101086.13
2022-12-05T08:13:50.289Z,101082.97
2022-12-05T08:16:21.771Z,101071.69
2022-12-05T08:18:49.190Z,101075.16
2022-12-05T08:21:19.133Z,101070.84
2022-12-05T08:23:46.975Z,101075.88
2022-12-05T08:26:17.178Z,101075.16
2022-12-05T08:28:44.847Z,101075.06
2022-12-05T08:31:18.258Z,101082.97
2022-12-05T08:33:46.031Z,101083.03
2022-12-05T08:36:15.622Z,101079.56
2022-12-05T08:38:44.138Z,101092.47
2022-12-05T08:41:16.967Z,101085.34
2022-12-05T08:43:44.717Z,101089.28
2022-12-05T08:46:12.753Z,101079.03
2022-12-05T08:48:40.170Z,101080.84
2022-12-05T08:51:10.107Z,101075.88
2022-12-05T08:53:44.032Z,101087.72
2022-12-05T08:56:12.923Z,101087.50
2022-12-05T08:58:40.926Z,101066.78
2022-12-05T09:01:38.683Z,101076.81
2022-12-05T09:04:07.400Z,101072.47
2022-12-05T09:06:35.756Z,101069.06
2022-12-05T09:09:07.058Z,101071.66
2022-12-05T09:11:38.001Z,101059.56
2022-12-05T09:14:05.632Z,101063.78
2022-12-05T09:16:38.561Z,101068.25
2022-12-05T09:19:27.781Z,101061.88
2022-12-05T09:21:55.976Z,101046.44
2022-12-05T09:24:23.415Z,101056.81
2022-12-05T09:26:50.980Z,101051.53
2022-12-05T09:29:18.381Z,101049.59
2022-12-05T09:31:49.940Z,101047.09
2022-12-05T09:34:18.516Z,101040.84
2022-12-05T09:36:55.788Z,101037.63
2022-12-05T09:39:25.865Z,101025.41
2022-12-05T09:42:19.396Z,101029.75
2022-12-05T09:44:46.609Z,101029.50
2022-12-05T09:47:23.283Z,101032.22
2022-12-05T09:49:57.548Z,101015.19
2022-12-05T09:52:31.718Z,101013.66
2022-12-05T09:55:09.929Z,101006.09
2022-12-05T09:57:43.394Z,100992.81
2022-12-05T10:00:12.080Z,100996.25
2022-12-05T10:02:54.725Z,101007.44
2022-12-05T10:05:34.887Z,101008.19
2022-12-05T10:08:07.291Z,101015.91
2022-12-05T10:10:56.889Z,101010.53
2022-12-05T10:13:40.275Z,100998.13
2022-12-05T10:16:39.192Z,100986.16
2022-12-05T10:19:32.767Z,100987.69
2022-12-05T10:22:09.987Z,100983.81
2022-12-05T10:24:42.187Z,100981.19
2022-12-05T10:27:27.440Z,100970.22
2022-12-05T10:30:02.686Z,100964.63
2022-12-05T10:32:55.546Z,100971.03
2022-12-05T10:35:28.214Z,100976.03
2022-12-05T10:38:00.805Z,100986.16
2022-12-05T10:40:38.669Z,100973.25
2022-12-05T10:43:08.360Z,100979.44
2022-12-05T10:45:45.622Z,100980.94
2022-12-05T10:48:16.078Z,100971.78
2022-12-05T10:50:45.371Z,100965.59
2022-12-05T10:53:17.157Z,100970.09
2022-12-05T10:56:28.120Z,100965.88
2022-12-05T10:58:38.585Z,100965.38
2022-12-05T11:01:13.363Z,100982.22
2022-12-05T11:03:43.373Z,100957.34
2022-12-05T11:06:24.150Z,100958.91
2022-12-05T11:09:18.542Z,100949.72
2022-12-05T11:12:06.802Z,100954.34
2022-12-05T11:14:36.253Z,100948.72
2022-12-05T11:17:05.589Z,100942.34
2022-12-05T11:19:36.821Z,100942.00
2022-12-05T11:22:08.009Z,100939.38
2022-12-05T11:24:38.470Z,100932.13
2022-12-05T11:27:27.964Z,100940.16
2022-12-05T11:30:15.427Z,100941.84
2022-12-05T11:32:42.991Z,100946.47
2022-12-05T11:35:13.061Z,100943.41
2022-12-05T11:37:55.986Z,100934.94
2022-12-05T11:40:42.735Z,100938.28
2022-12-05T11:43:22.311Z,100938.22
2022-12-05T11:45:58.727Z,100942.09
2022-12-05T11:48:39.431Z,100936.31
2022-12-05T11:51:06.538Z,100938.72
2022-12-05T11:54:00.660Z,100935.22
2022-12-05T11:56:58.766Z,100930.28
2022-12-05T12:00:03.090Z,100918.09
2022-12-05T12:02:57.348Z,100923.25
2022-12-05T12:05:42.287Z,100921.22
2022-12-05T12:08:25.302Z,100915.09
2022-12-05T12:11:08.358Z,100911.72
2022-12-05T12:13:47.543Z,100913.03
2022-12-05T12:16:30.110Z,100911.31
2022-12-05T12:19:05.793Z,100906.03
2022-12-05T12:22:01.526Z,100891.59
2022-12-05T12:24:28.773Z,100895.06
2022-12-05T12:27:02.162Z,100894.19
2022-12-05T12:29:32.125Z,100887.59
2022-12-05T12:32:25.930Z,100880.13
2022-12-05T12:35:23.808Z,100872.38
2022-12-05T12:38:24.954Z,100873.97
2022-12-05T12:40:55.417Z,100870.41
2022-12-05T12:43:54.768Z,100864.28
2022-12-05T12:46:25.153Z,100857.22
2022-12-05T12:49:36.139Z,100859.19
2022-12-05T12:52:23.461Z,100860.06
2022-12-05T12:55:12.625Z,100868.47
2022-12-05T12:57:58.666Z,100863.09
2022-12-05T13:01:04.798Z,100866.84
2022-12-05T13:03:41.583Z,100848.22
2022-12-05T13:06:14.839Z,100857.84
2022-12-05T13:08:49.992Z,100860.06
2022-12-05T13:11:19.759Z,100856.16
2022-12-05T13:13:51.228Z,100849.63
2022-12-05T13:16:45.544Z,100831.22
2022-12-05T13:19:41.000Z,100847.03
2022-12-05T13:22:08.963Z,100846.50
2022-12-05T13:24:36.569Z,100840.63
2022-12-05T13:27:14.772Z,100857.22
2022-12-05T13:29:50.976Z,100848.50
2022-12-05T13:32:37.450Z,100840.88
2022-12-05T13:35:07.597Z,100833.56
2022-12-05T13:37:55.134Z,100836.16
2022-12-05T13:40:52.952Z,100831.09
2022-12-05T13:43:29.492Z,100832.59
2022-12-05T13:46:06.715Z,100825.25
2022-12-05T13:48:38.445Z,100824.31
2022-12-05T13:51:13.620Z,100834.41
2022-12-05T13:53:43.950Z,100814.94
2022-12-05T13:56:14.094Z,100825.56
2022-12-05T13:58:52.728Z,100825.50
2022-12-05T14:01:48.975Z,100828.56
2022-12-05T14:04:44.125Z,100815.84
2022-12-05T14:07:12.057Z,100812.81
2022-12-05T14:09:51.039Z,100827.22
2022-12-05T14:12:18.122Z,100817.97
2022-12-05T14:14:58.102Z,100805.44
2022-12-05T14:17:31.502Z,100809.22
2022-12-05T14:20:43.759Z,100805.19
2022-12-05T14:23:16.611Z,100815.00
2022-12-05T14:26:08.683Z,100804.41
2022-12-05T14:29:01.743Z,100805.66
2022-12-05T14:31:44.151Z,100808.47
2022-12-05T14:34:18.306Z,100802.78
2022-12-05T14:37:03.691Z,100798.38
2022-12-05T14:39:35.466Z,100788.88
2022-12-05T14:42:18.676Z,100795.94
2022-12-05T14:44:48.869Z,100788.41
2022-12-05T14:47:23.109Z,100778.06
2022-12-05T14:49:58.052Z,100775.72
2022-12-05T14:52:28.010Z,100769.13
2022-12-05T14:55:09.066Z,100762.13
2022-12-05T14:57:47.136Z,100758.06
2022-12-05T15:00:22.912Z,100755.31
2022-12-05T15:02:55.550Z,100754.78
2022-12-05T15:05:33.771Z,100769.53
2022-12-05T15:08:03.959Z,100758.69
2022-12-05T15:10:38.486Z,100762.69
2022-12-05T15:13:14.493Z,100782.31
2022-12-05T15:15:52.187Z,100771.28
2022-12-05T15:18:24.600Z,100779.66
2022-12-05T15:20:59.222Z,100777.78
2022-12-05T15:23:49.035Z,100760.69
2022-12-05T15:26:45.534Z,100767.13
2022-12-05T15:29:18.084Z,100759.84
2022-12-05T15:31:46.424Z,100766.38
2022-12-05T15:34:22.962Z,100768.22
2022-12-05T15:36:57.734Z,100765.81
2022-12-05T15:39:28.456Z,100750.19
2022-12-05T15:41:57.290Z,100761.19
2022-12-05T15:44:34.233Z,100752.63
2022-12-05T15:47:04.767Z,100761.34
2022-12-05T15:49:32.255Z,100764.88
2022-12-05T15:52:18.331Z,100760.28
2022-12-05T15:54:47.210Z,100767.84
2022-12-05T15:57:41.071Z,100765.41
2022-12-05T16:00:17.424Z,100772.69
2022-12-05T16:02:47.457Z,100753.81
2022-12-05T16:05:30.829Z,100758.56
2022-12-05T16:07:58.375Z,100745.25
2022-12-05T16:10:29.520Z,100751.47
2022-12-05T16:13:04.731Z,100750.03
2022-12-05T16:15:33.025Z,100742.22
2022-12-05T16:18:02.590Z,100748.25
2022-12-05T16:20:35.565Z,100744.75
2022-12-05T16:23:05.919Z,100732.59
2022-12-05T16:25:35.882Z,100730.53
2022-12-05T16:28:18.779Z,100739.56
2022-12-05T16:31:01.997Z,100734.25
2022-12-05T16:33:30.806Z,100735.84
2022-12-05T16:36:14.451Z,100718.34
2022-12-05T16:38:43.466Z,100726.78
2022-12-05T16:41:15.184Z,100728.75
2022-12-05T16:43:45.627Z,100723.75
2022-12-05T16:46:13.580Z,100730.69
2022-12-05T16:48:44.561Z,100720.78
2022-12-05T16:51:15.038Z,100734.97
2022-12-05T16:53:46.196Z,100717.91
2022-12-05T16:56:20.742Z,100717.03
2022-12-05T16:58:48.229Z,100728.53
2022-12-05T17:01:22.172Z,100713.72
2022-12-05T17:03:49.498Z,100715.88
2022-12-05T17:06:21.422Z,100724.25
2022-12-05T17:08:49.134Z,100709.44
2022-12-05T17:11:16.540Z,100717.78
2022-12-05T17:13:45.276Z,100706.91
2022-12-05T17:16:12.803Z,100706.91
2022-12-05T17:18:40.135Z,100713.84
2022-12-05T17:21:14.144Z,100708.56
2022-12-05T17:23:44.552Z,100697.63
2022-12-05T17:26:17.549Z,100695.19
2022-12-05T17:28:45.383Z,100696.34
2022-12-05T17:31:17.392Z,100689.41
2022-12-05T17:33:46.043Z,100698.25
2022-12-05T17:36:14.346Z,100681.31
2022-12-05T17:38:41.865Z,100691.03
2022-12-05T17:41:16.411Z,100689.88
2022-12-05T17:43:44.180Z,100679.63
2022-12-05T17:46:20.728Z,100680.25
2022-12-05T17:48:49.413Z,100678.41
2022-12-05T17:51:18.299Z,100680.97
2022-12-05T17:53:45.804Z,100680.16
2022-12-05T17:56:14.126Z,100694.22
2022-12-05T17:58:42.268Z,100683.53
2022-12-05T18:01:19.524Z,100673.06
2022-12-05T18:03:48.203Z,100665.44
2022-12-05T18:06:16.110Z,100668.22
2022-12-05T18:08:45.214Z,100670.66
2022-12-05T18:11:14.158Z,100674.34
2022-12-05T18:13:41.463Z,100665.59
2022-12-05T18:16:09.060Z,100670.19
2022-12-05T18:18:36.606Z,100659.72
2022-12-05T18:21:12.046Z,100666.00
2022-12-05T18:23:40.629Z,100670.66
2022-12-05T18:26:09.809Z,100666.53
2022-12-05T18:28:39.023Z,100666.25
2022-12-05T18:31:08.171Z,100676.44
2022-12-05T18:33:39.640Z,100670.44
2022-12-05T18:36:12.931Z,100666.22
2022-12-05T18:38:40.838Z,100679.63
2022-12-05T18:41:08.054Z,100675.13
2022-12-05T18:43:36.315Z,100672.06
2022-12-05T18:46:04.770Z,100671.28
2022-12-05T18:48:46.953Z,100668.66
2022-12-05T18:51:17.607Z,100661.47
2022-12-05T18:53:51.811Z,100666.00
2022-12-05T18:56:24.165Z,100661.09
2022-12-05T18:58:54.206Z,100667.72
2022-12-05T19:01:21.583Z,100662.75
2022-12-05T19:03:50.512Z,100661.28
2022-12-05T19:06:23.459Z,100657.28
2022-12-05T19:08:54.372Z,100658.63
2022-12-05T19:11:22.514Z,100656.00
2022-12-05T19:13:54.891Z,100639.72
2022-12-05T19:16:22.264Z,100624.50
2022-12-05T19:18:54.573Z,100629.91
2022-12-05T19:21:26.434Z,100626.69
2022-12-05T19:23:54.520Z,100629.50
2022-12-05T19:26:22.943Z,100613.88
2022-12-05T19:28:50.559Z,100619.63
2022-12-05T19:31:20.376Z,100619.72
2022-12-05T19:33:50.749Z,100613.25
2022-12-05T19:36:21.095Z,100626.44
2022-12-05T19:38:50.000Z,100612.72
2022-12-05T19:41:20.825Z,100614.47
2022-12-05T19:43:48.311Z,100609.06
2022-12-05T19:46:33.637Z,100607.97
2022-12-05T19:49:08.457Z,100619.78
2022-12-05T19:51:35.809Z,100618.16
2022-12-05T19:54:05.387Z,100624.66
2022-12-05T19:56:34.118Z,100617.28
2022-12-05T19:59:01.950Z,100616.19
2022-12-05T20:01:31.667Z,100604.97
2022-12-05T20:04:08.142Z,100611.75
2022-12-05T20:06:44.153Z,100621.47
2022-12-05T20:09:13.131Z,100625.63
2022-12-05T20:11:43.683Z,100634.09
2022-12-05T20:14:13.341Z,100632.00
2022-12-05T20:16:41.595Z,100631.75
2022-12-05T20:19:09.509Z,100613.91
2022-12-05T20:21:40.034Z,100620.91
2022-12-05T20:24:08.563Z,100620.47
2022-12-05T20:26:38.153Z,100610.41
2022-12-05T20:29:06.922Z,100615.25
2022-12-05T20:31:39.702Z,100616.72
2022-12-05T20:34:09.258Z,100615.34
2022-12-05T20:36:36.746Z,100618.81
2022-12-05T20:39:11.126Z,100597.22
2022-12-05T20:41:38.518Z,100608.06
2022-12-05T20:44:08.153Z,100598.22
2022-12-05T20:46:36.911Z,100601.44
2022-12-05T20:49:04.520Z,100606.31
2022-12-05T20:51:33.860Z,100585.88
2022-12-05T20:54:03.940Z,100584.41
2022-12-05T20:56:33.017Z,100586.94
2022-12-05T20:59:05.814Z,100578.47
2022-12-05T21:01:35.548Z,100574.38
2022-12-05T21:04:05.991Z,100578.34
2022-12-05T21:06:36.254Z,100578.41
2022-12-05T21:09:06.552Z,100571.59
2022-12-05T21:11:33.830Z,100576.31
2022-12-05T21:14:01.952Z,100575.75
2022-12-05T21:16:29.152Z,100560.09
2022-12-05T21:18:58.815Z,100570.53
2022-12-05T21:21:28.205Z,100569.53
2022-12-05T21:23:58.143Z,100561.28
2022-12-05T21:26:27.449Z,100558.03
2022-12-05T21:28:55.467Z,100566.06
2022-12-05T21:31:28.525Z,100559.97
2022-12-05T21:33:59.080Z,100561.84
2022-12-05T21:36:28.437Z,100554.53
2022-12-05T21:38:56.758Z,100553.53
2022-12-05T21:41:25.869Z,100556.16
2022-12-05T21:43:55.309Z,100549.16
2022-12-05T21:46:24.190Z,100552.13
2022-12-05T21:48:51.763Z,100543.09
2022-12-05T21:51:18.918Z,100534.38
2022-12-05T21:53:46.363Z,100539.16
2022-12-05T21:56:18.078Z,100535.03
2022-12-05T21:58:46.184Z,100530.50
2022-12-05T22:01:21.873Z,100523.16
2022-12-05T22:04:00.886Z,100536.47
2022-12-05T22:06:30.103Z,100521.63
2022-12-05T22:08:57.721Z,100511.53
2022-12-05T22:11:25.401Z,100522.81
2022-12-05T22:13:53.327Z,100526.47
2022-12-05T22:16:21.164Z,100513.25
2022-12-05T22:18:49.006Z,100508.97
2022-12-05T22:21:21.228Z,100506.81
2022-12-05T22:23:49.678Z,100505.94
2022-12-05T22:26:20.071Z,100493.59
2022-12-05T22:28:50.564Z,100486.94
2022-12-05T22:31:18.682Z,100488.00
2022-12-05T22:33:46.691Z,100478.28
2022-12-05T22:36:16.556Z,100488.84
2022-12-05T22:38:45.676Z,100481.25
2022-12-05T22:41:19.013Z,100483.13
2022-12-05T22:43:48.676Z,100483.19
2022-12-05T22:46:18.893Z,100486.09
2022-12-05T22:48:48.037Z,100465.38
2022-12-05T22:51:16.844Z,100475.53
2022-12-05T22:53:44.528Z,100466.69
2022-12-05T22:56:14.858Z,100456.13
2022-12-05T22:58:42.930Z,100471.56
2022-12-05T23:01:18.648Z,100454.94
2022-12-05T23:03:47.856Z,100465.66
2022-12-05T23:06:17.105Z,100449.81
2022-12-05T23:08:47.882Z,100456.13
2022-12-05T23:11:18.999Z,100450.31
2022-12-05T23:13:48.362Z,100436.41
2022-12-05T23:16:21.374Z,100442.94
2022-12-05T23:18:55.915Z,100442.63
2022-12-05T23:21:27.963Z,100427.09
2022-12-05T23:23:59.947Z,100436.00
2022-12-05T23:26:34.023Z,100438.03
2022-12-05T23:29:01.738Z,100425.00
2022-12-05T23:31:29.034Z,100429.47
2022-12-05T23:34:02.694Z,100426.69
2022-12-05T23:36:32.303Z,100421.50
2022-12-05T23:39:00.276Z,100425.25
2022-12-05T23:41:27.753Z,100410.31
2022-12-05T23:43:56.834Z,100414.63
2022-12-05T23:46:26.625Z,100412.56
2022-12-05T23:48:55.321Z,100410.66
2022-12-05T23:51:25.764Z,100418.94
2022-12-05T23:53:56.549Z,100425.78
2022-12-05T23:56:26.254Z,100416.00
2022-12-05T23:58:55.308Z,100390.47
